Time;durP1;ratioP1;P1;durP2;ratioP2;P2;SDS_P1;SDS_P2;PMS_P1;PMS_P2;Temp;Humidity;BMP_temperature;BMP_pressure;BME280_temperature;BME280_humidity;BME280_pressure;Samples;Min_cycle;Max_cycle;Signal;HPM_P1;HPM_P2
2021/12/05 00:18:28;;;;;;;11.57;6.93;;;2.80;99.90;;;;;;5072199;28;20650;-63
2021/12/05 00:23:40;;;;;;;10.57;7.30;;;2.80;99.90;;;;;;5096310;28;20242;-64
2021/12/05 00:26:09;;;;;;;11.10;7.20;;;2.80;99.90;;;;;;5097287;28;20169;-63
2021/12/05 00:37:04;;;;;;;9.30;6.67;;;2.80;99.90;;;;;;5117156;28;20192;-63
2021/12/05 00:50:03;;;;;;;10.70;7.70;;;2.70;99.90;;;;;;5116390;28;20478;-63
2021/12/05 01:01:19;;;;;;;9.70;7.30;;;2.90;99.90;;;;;;5119909;28;20162;-63
2021/12/05 01:16:43;;;;;;;9.77;7.07;;;3.00;99.90;;;;;;5115741;28;20297;-64
2021/12/05 01:19:12;;;;;;;6.63;4.93;;;3.00;99.90;;;;;;5116292;28;20167;-63
2021/12/05 01:21:39;;;;;;;9.83;7.40;;;3.10;99.90;;;;;;5115959;28;20166;-63
2021/12/05 01:24:22;;;;;;;10.63;7.70;;;3.10;99.90;;;;;;5115280;28;20200;-63
2021/12/05 01:26:59;;;;;;;9.93;7.50;;;3.20;99.90;;;;;;5115318;28;20173;-64
2021/12/05 01:34:49;;;;;;;10.33;7.20;;;3.30;99.90;;;;;;5115168;28;20246;-63
2021/12/05 01:37:30;;;;;;;12.20;7.33;;;3.40;99.90;;;;;;5115262;28;20160;-63
2021/12/05 02:33:48;;;;;;;4.00;3.30;;;4.50;99.90;;;;;;5113348;28;20629;-64
2021/12/05 02:41:42;;;;;;;4.57;3.53;;;4.80;99.90;;;;;;5113869;28;20158;-64
2021/12/05 02:44:21;;;;;;;4.07;3.43;;;4.90;99.90;;;;;;5114042;28;20201;-64
2021/12/05 02:47:00;;;;;;;3.87;3.10;;;4.90;99.90;;;;;;5113861;28;20513;-63
2021/12/05 02:49:27;;;;;;;4.80;2.83;;;4.90;99.90;;;;;;5114201;28;20160;-64
2021/12/05 02:51:58;;;;;;;3.53;2.97;;;4.90;99.90;;;;;;5114024;28;20162;-65
2021/12/05 02:54:27;;;;;;;4.90;3.30;;;4.90;99.90;;;;;;5114125;28;20189;-64
2021/12/05 02:56:55;;;;;;;3.67;2.43;;;4.80;99.90;;;;;;5113744;28;20617;-64
2021/12/05 02:59:48;;;;;;;3.67;2.77;;;4.90;99.90;;;;;;5101692;28;20182;-64
2021/12/05 03:02:16;;;;;;;3.50;2.87;;;4.90;99.90;;;;;;5072725;28;20187;-64
2021/12/05 03:04:46;;;;;;;4.80;3.00;;;4.90;99.90;;;;;;5072757;28;20197;-63
2021/12/05 03:07:15;;;;;;;3.47;3.17;;;5.00;99.90;;;;;;5073468;28;20155;-63
2021/12/05 03:09:42;;;;;;;2.63;2.40;;;4.90;99.90;;;;;;5075116;28;20189;-64
2021/12/05 03:12:16;;;;;;;3.83;2.90;;;4.90;99.90;;;;;;5077437;28;20246;-64
2021/12/05 03:14:42;;;;;;;5.23;3.53;;;4.90;99.90;;;;;;5077761;28;20261;-63
2021/12/05 03:17:07;;;;;;;3.23;2.83;;;5.00;99.90;;;;;;5076616;28;20191;-65
2021/12/05 03:19:33;;;;;;;6.10;3.50;;;5.00;99.90;;;;;;5077662;28;20162;-64
2021/12/05 03:21:59;;;;;;;5.40;3.30;;;5.00;99.90;;;;;;5076251;28;20170;-64
2021/12/05 03:24:26;;;;;;;4.97;3.33;;;5.00;99.90;;;;;;5074041;28;20203;-63
2021/12/05 03:26:53;;;;;;;4.97;2.63;;;5.00;99.90;;;;;;5072948;28;20173;-63
2021/12/05 03:29:20;;;;;;;4.07;3.13;;;5.00;99.90;;;;;;5072865;28;20202;-64
2021/12/05 03:31:47;;;;;;;4.03;3.47;;;5.10;99.90;;;;;;5073044;28;20516;-63
2021/12/05 03:34:16;;;;;;;4.30;3.27;;;5.00;99.90;;;;;;5072725;28;20223;-64
2021/12/05 03:36:46;;;;;;;4.40;3.20;;;5.10;99.90;;;;;;5072732;28;20576;-64
2021/12/05 03:39:12;;;;;;;3.93;3.00;;;5.20;99.90;;;;;;5072947;28;20166;-64
2021/12/05 03:41:39;;;;;;;3.90;3.00;;;5.10;99.90;;;;;;5072756;28;20217;-65
2021/12/05 03:44:08;;;;;;;3.30;2.70;;;5.10;99.90;;;;;;5072161;28;20257;-66
2021/12/05 03:46:34;;;;;;;2.90;2.60;;;5.20;99.90;;;;;;5074830;28;20318;-64
2021/12/05 03:49:07;;;;;;;3.10;2.53;;;5.20;99.90;;;;;;5076479;28;20587;-64
2021/12/05 03:51:36;;;;;;;2.30;2.10;;;5.20;99.90;;;;;;5076663;28;20202;-65
2021/12/05 03:54:05;;;;;;;3.30;3.00;;;5.20;99.90;;;;;;5076061;28;20172;-64
2021/12/05 03:56:32;;;;;;;3.43;2.43;;;5.30;99.90;;;;;;5076166;28;20159;-64
2021/12/05 03:58:58;;;;;;;3.30;3.00;;;5.30;99.90;;;;;;5076405;28;20244;-63
2021/12/05 04:01:25;;;;;;;3.47;2.67;;;5.20;99.90;;;;;;5076526;28;20197;-64
2021/12/05 04:03:52;;;;;;;3.90;2.80;;;5.20;99.90;;;;;;5075892;28;20259;-63
2021/12/05 04:06:22;;;;;;;3.10;2.53;;;5.20;99.90;;;;;;5075961;28;20170;-64
2021/12/05 04:08:49;;;;;;;3.33;2.40;;;5.30;99.90;;;;;;5076358;28;20167;-64
2021/12/05 04:11:28;;;;;;;3.50;2.77;;;5.20;99.90;;;;;;5075654;28;20167;-63
2021/12/05 04:13:54;;;;;;;7.07;2.57;;;5.20;99.90;;;;;;5076240;28;20590;-64
2021/12/05 04:16:20;;;;;;;3.73;2.47;;;5.20;99.90;;;;;;5075901;28;20175;-63
2021/12/05 04:18:46;;;;;;;3.60;2.73;;;5.30;99.90;;;;;;5076105;28;20164;-64
2021/12/05 04:21:13;;;;;;;3.10;2.40;;;5.30;99.90;;;;;;5075850;28;20549;-64
2021/12/05 04:23:39;;;;;;;3.13;2.20;;;5.20;99.90;;;;;;5076233;28;20171;-63
2021/12/05 04:26:05;;;;;;;5.17;2.63;;;5.30;99.90;;;;;;5076295;28;20170;-65
2021/12/05 04:28:31;;;;;;;4.00;2.30;;;5.20;99.90;;;;;;5085705;28;20187;-65
2021/12/05 04:30:57;;;;;;;4.07;2.30;;;5.30;99.90;;;;;;5116563;28;20192;-65
2021/12/05 04:33:24;;;;;;;5.00;2.57;;;5.30;99.90;;;;;;5116108;28;20196;-65
2021/12/05 04:35:49;;;;;;;3.20;2.23;;;5.30;99.90;;;;;;5096099;28;20159;-66
2021/12/05 04:38:15;;;;;;;3.27;2.33;;;5.20;99.90;;;;;;5082796;28;20187;-66
2021/12/05 04:40:41;;;;;;;1.97;1.77;;;5.30;99.90;;;;;;5075483;28;20206;-65
2021/12/05 04:43:07;;;;;;;2.93;2.10;;;5.30;99.90;;;;;;5075409;28;20171;-68
2021/12/05 04:45:35;;;;;;;3.60;2.10;;;5.30;99.90;;;;;;5075829;28;20206;-64
2021/12/05 04:48:03;;;;;;;3.10;2.00;;;5.30;99.90;;;;;;5075607;28;20170;-64
2021/12/05 04:50:29;;;;;;;4.73;2.40;;;5.30;99.90;;;;;;5075235;28;20165;-65
2021/12/05 04:52:55;;;;;;;2.93;1.90;;;5.40;99.90;;;;;;5075350;28;20236;-65
2021/12/05 04:55:21;;;;;;;2.90;2.60;;;5.40;99.90;;;;;;5075044;28;20175;-64
2021/12/05 04:57:48;;;;;;;6.10;2.10;;;5.30;99.90;;;;;;5074811;28;20178;-64
2021/12/05 05:00:26;;;;;;;2.53;1.87;;;5.30;99.90;;;;;;5074844;28;20147;-64
2021/12/05 05:02:54;;;;;;;3.53;2.30;;;5.30;99.90;;;;;;5066635;28;20162;-64
2021/12/05 05:05:20;;;;;;;3.13;2.27;;;5.30;99.90;;;;;;5074987;28;20243;-64
2021/12/05 05:07:46;;;;;;;2.83;1.87;;;5.20;99.90;;;;;;5074980;28;20168;-64
2021/12/05 05:10:19;;;;;;;2.17;1.90;;;5.30;99.90;;;;;;5074593;28;20175;-64
2021/12/05 05:12:45;;;;;;;3.17;1.77;;;5.30;99.90;;;;;;5075461;28;20190;-63
2021/12/05 05:15:13;;;;;;;4.17;1.73;;;5.30;99.90;;;;;;5074963;28;20195;-63
2021/12/05 05:17:40;;;;;;;2.43;1.97;;;5.40;99.90;;;;;;5056633;28;20555;-64
2021/12/05 05:20:22;;;;;;;6.40;2.20;;;5.40;99.90;;;;;;5074971;28;20215;-64
2021/12/05 05:42:06;;;;;;;1.80;1.70;;;5.40;99.90;;;;;;5074288;28;20167;-66
2021/12/05 05:49:20;;;;;;;2.53;1.93;;;5.40;99.90;;;;;;5074042;28;20167;-65
2021/12/05 05:51:46;;;;;;;2.93;2.20;;;5.40;99.90;;;;;;5073681;28;20191;-65
2021/12/05 05:54:12;;;;;;;4.60;1.87;;;5.30;99.90;;;;;;5071553;28;20214;-72
2021/12/05 05:56:40;;;;;;;5.40;1.70;;;5.30;99.90;;;;;;5092017;28;20167;-63
2021/12/05 05:59:21;;;;;;;2.67;1.90;;;5.30;99.90;;;;;;5094107;28;20208;-64
2021/12/05 06:04:17;;;;;;;4.10;2.10;;;5.30;99.90;;;;;;5093832;28;20194;-64
2021/12/05 06:06:43;;;;;;;2.40;1.80;;;5.20;99.90;;;;;;5093586;28;20169;-63
2021/12/05 06:09:09;;;;;;;4.30;2.40;;;5.20;99.90;;;;;;5094068;28;20171;-63
2021/12/05 06:11:35;;;;;;;7.43;1.63;;;5.30;99.90;;;;;;5093729;28;20593;-65
2021/12/05 06:14:03;;;;;;;3.97;2.40;;;5.30;99.90;;;;;;5093929;28;20626;-65
2021/12/05 06:16:29;;;;;;;4.23;1.50;;;5.30;99.90;;;;;;5094226;28;20225;-63
2021/12/05 06:18:55;;;;;;;2.73;1.80;;;5.30;99.90;;;;;;5093984;28;20252;-65
2021/12/05 06:21:21;;;;;;;2.60;1.60;;;5.30;99.90;;;;;;5093793;28;20299;-64
2021/12/05 06:23:47;;;;;;;2.87;1.47;;;5.30;99.90;;;;;;5093914;28;20164;-65
2021/12/05 06:26:20;;;;;;;6.40;2.67;;;5.30;99.90;;;;;;5093891;28;20233;-64
2021/12/05 06:28:56;;;;;;;2.03;1.77;;;5.30;99.90;;;;;;5095174;28;20251;-64
2021/12/05 06:40:23;;;;;;;3.20;1.93;;;5.20;99.90;;;;;;5119357;28;20169;-66
2021/12/05 06:47:30;;;;;;;5.30;2.47;;;5.30;99.90;;;;;;5114242;28;20185;-65
2021/12/05 06:49:56;;;;;;;5.10;2.07;;;5.20;99.90;;;;;;5093069;28;20203;-64
2021/12/05 06:52:23;;;;;;;3.70;1.77;;;5.20;99.90;;;;;;5104018;28;20163;-70
2021/12/05 06:54:49;;;;;;;4.00;2.60;;;5.20;99.90;;;;;;5103923;28;20178;-66
2021/12/05 06:57:16;;;;;;;6.23;2.80;;;5.20;99.90;;;;;;5104140;28;20250;-65
2021/12/05 06:59:45;;;;;;;5.03;2.30;;;5.20;99.90;;;;;;5096272;28;20250;-64
2021/12/05 07:02:13;;;;;;;5.07;2.33;;;5.20;99.90;;;;;;5089034;28;20532;-64
2021/12/05 07:07:27;;;;;;;6.20;1.87;;;5.20;99.90;;;;;;5093053;28;20165;-63
2021/12/05 07:09:53;;;;;;;2.40;2.13;;;5.10;99.90;;;;;;5089322;28;20646;-64
2021/12/05 07:21:31;;;;;;;5.17;2.83;;;5.20;99.90;;;;;;5088559;28;20645;-65
2021/12/05 07:23:42;;;;;;;6.60;2.63;;;5.20;99.90;;;;;;5082659;28;20265;-64
2021/12/05 07:26:19;;;;;;;4.73;1.97;;;5.20;99.90;;;;;;5097184;28;20163;-64
2021/12/05 07:42:30;;;;;;;2.90;1.80;;;5.20;99.90;;;;;;5072446;28;20193;-64
2021/12/05 07:45:00;;;;;;;3.20;1.97;;;5.20;99.90;;;;;;5071102;28;20207;-65
2021/12/05 07:47:30;;;;;;;3.77;1.60;;;5.30;99.90;;;;;;5092509;28;20176;-65
2021/12/05 07:49:57;;;;;;;4.60;2.10;;;5.30;99.90;;;;;;5096674;28;20159;-64
2021/12/05 07:52:26;;;;;;;2.20;1.77;;;5.30;99.90;;;;;;5080594;28;20175;-65
2021/12/05 07:55:03;;;;;;;3.33;1.97;;;5.20;99.90;;;;;;5073152;28;20532;-66
2021/12/05 07:57:42;;;;;;;2.90;1.90;;;5.30;99.90;;;;;;5076681;28;20189;-64
2021/12/05 08:01:04;;;;;;;3.33;2.10;;;5.30;99.90;;;;;;5075745;28;20158;-63
2021/12/05 08:16:44;;;;;;;5.57;2.60;;;5.50;99.90;;;;;;5082364;28;20189;-64
2021/12/05 08:19:10;;;;;;;5.20;2.47;;;5.50;99.90;;;;;;5082482;28;20180;-64
2021/12/05 08:21:36;;;;;;;9.17;2.20;;;5.50;99.90;;;;;;5078534;28;20288;-64
2021/12/05 08:24:02;;;;;;;6.37;2.37;;;5.50;99.90;;;;;;5072942;28;20210;-64
2021/12/05 08:26:32;;;;;;;2.80;2.10;;;5.60;99.90;;;;;;5071078;28;20175;-66
2021/12/05 08:29:38;;;;;;;4.57;2.67;;;5.60;99.90;;;;;;5074511;28;20187;-65
2021/12/05 08:34:41;;;;;;;6.60;3.03;;;5.60;99.90;;;;;;5072757;28;20238;-64
2021/12/05 09:40:11;;;;;;;3.13;2.17;;;6.10;99.90;;;;;;5095197;28;20699;-64
2021/12/05 10:07:04;;;;;;;3.63;1.33;;;6.30;99.90;;;;;;5105869;28;20273;-64
2021/12/05 10:20:25;;;;;;;5.77;2.53;;;6.20;99.90;;;;;;5033371;28;20195;-66
2021/12/05 10:37:22;;;;;;;5.53;2.00;;;6.50;99.90;;;;;;5002867;28;20181;-67
2021/12/05 10:40:21;;;;;;;8.23;1.73;;;6.50;99.90;;;;;;5011966;28;20229;-66
2021/12/05 10:42:50;;;;;;;1.90;1.47;;;6.40;99.90;;;;;;5004008;28;20203;-66
2021/12/05 10:45:29;;;;;;;1.87;1.30;;;6.40;99.90;;;;;;5013686;28;20370;-65
2021/12/05 10:47:57;;;;;;;2.53;1.37;;;6.30;99.90;;;;;;5002476;28;20187;-67
2021/12/05 10:50:42;;;;;;;2.70;1.60;;;6.30;99.90;;;;;;5008243;28;20184;-66
2021/12/05 10:53:38;;;;;;;7.87;3.13;;;6.40;99.90;;;;;;5055359;28;20584;-65
2021/12/05 10:56:13;;;;;;;2.23;1.30;;;6.30;99.90;;;;;;5068786;28;20218;-66
2021/12/05 10:58:41;;;;;;;1.57;1.47;;;6.30;99.90;;;;;;5068617;28;20550;-66
2021/12/05 11:01:11;;;;;;;2.47;1.60;;;6.30;99.90;;;;;;5073517;28;20177;-66
2021/12/05 11:03:37;;;;;;;2.57;1.57;;;6.40;99.90;;;;;;5073701;28;20201;-66
2021/12/05 11:06:21;;;;;;;4.90;1.90;;;6.30;99.90;;;;;;5067974;28;20553;-67
2021/12/05 11:08:53;;;;;;;2.13;1.63;;;6.30;99.90;;;;;;5073559;28;20171;-65
2021/12/05 11:11:19;;;;;;;6.83;1.67;;;6.30;99.90;;;;;;5073013;28;20254;-69
2021/12/05 11:13:45;;;;;;;2.07;1.53;;;6.40;99.90;;;;;;5073310;28;20206;-66
2021/12/05 11:16:32;;;;;;;7.10;1.50;;;6.30;99.90;;;;;;5073164;28;20165;-68
2021/12/05 11:18:58;;;;;;;2.13;1.37;;;6.40;99.90;;;;;;5073199;28;20216;-67
2021/12/05 11:21:32;;;;;;;3.27;1.70;;;6.40;99.90;;;;;;5079190;28;20168;-67
2021/12/05 11:24:12;;;;;;;3.77;1.63;;;6.40;99.90;;;;;;5073606;28;20186;-67
2021/12/05 11:26:41;;;;;;;4.07;1.57;;;6.30;99.90;;;;;;5092376;28;20645;-66
2021/12/05 11:29:08;;;;;;;4.73;1.37;;;6.30;99.90;;;;;;5075323;28;20167;-67
2021/12/05 11:31:36;;;;;;;3.20;1.60;;;6.30;99.90;;;;;;5094095;28;20260;-67
2021/12/05 11:34:03;;;;;;;3.37;1.50;;;6.30;99.90;;;;;;5089298;28;20226;-68
2021/12/05 11:36:33;;;;;;;2.57;1.30;;;6.40;99.90;;;;;;5074775;28;20171;-67
2021/12/05 11:39:18;;;;;;;5.33;2.23;;;6.30;99.90;;;;;;5072963;28;20209;-66
2021/12/05 11:41:45;;;;;;;5.23;2.13;;;6.40;99.90;;;;;;5074072;28;20210;-67
2021/12/05 11:44:17;;;;;;;8.40;2.10;;;6.30;99.90;;;;;;5073141;28;20201;-66
2021/12/05 11:46:44;;;;;;;2.80;1.77;;;6.30;99.90;;;;;;5061207;28;20251;-65
2021/12/05 11:49:28;;;;;;;3.67;2.10;;;6.30;99.90;;;;;;5053801;28;20168;-65
2021/12/05 11:51:57;;;;;;;2.27;1.67;;;6.30;99.90;;;;;;5067499;28;20187;-66
2021/12/05 11:54:38;;;;;;;5.17;1.57;;;6.40;99.90;;;;;;5091445;28;20183;-65
2021/12/05 11:57:17;;;;;;;3.00;1.43;;;6.40;99.90;;;;;;5071378;28;20267;-65
2021/12/05 11:59:55;;;;;;;2.97;1.80;;;6.40;99.90;;;;;;5073099;28;20156;-66
2021/12/05 12:02:27;;;;;;;5.43;1.63;;;6.40;99.90;;;;;;5075192;28;20475;-65
2021/12/05 12:04:56;;;;;;;1.50;1.37;;;6.50;99.90;;;;;;5068016;28;20195;-65
2021/12/05 12:07:27;;;;;;;6.93;1.70;;;6.50;99.90;;;;;;5075647;28;20161;-66
2021/12/05 12:10:02;;;;;;;4.17;1.20;;;6.50;99.90;;;;;;5079127;28;20166;-66
2021/12/05 12:12:28;;;;;;;3.97;1.90;;;6.50;99.90;;;;;;5060292;28;20167;-67
2021/12/05 12:14:54;;;;;;;4.73;1.50;;;6.50;99.90;;;;;;5059300;28;20218;-66
2021/12/05 12:17:20;;;;;;;2.90;1.57;;;6.60;99.90;;;;;;5073306;28;20314;-67
2021/12/05 12:19:49;;;;;;;9.83;1.73;;;6.70;99.90;;;;;;5077105;28;20184;-66
2021/12/05 12:22:19;;;;;;;3.70;2.73;;;6.60;99.90;;;;;;5076266;28;20159;-67
2021/12/05 12:24:53;;;;;;;4.27;1.33;;;6.60;99.90;;;;;;5076447;28;20283;-66
2021/12/05 12:27:20;;;;;;;4.37;1.90;;;6.50;99.90;;;;;;5075910;28;20509;-67
2021/12/05 12:29:48;;;;;;;5.23;1.67;;;6.40;99.90;;;;;;5071767;28;20626;-67
2021/12/05 12:32:18;;;;;;;4.70;1.67;;;6.40;99.90;;;;;;5065998;28;20488;-66
2021/12/05 12:34:44;;;;;;;4.60;2.20;;;6.50;99.90;;;;;;5055414;28;20222;-66
2021/12/05 12:37:12;;;;;;;2.73;1.40;;;6.60;99.90;;;;;;5058199;28;20549;-68
2021/12/05 12:39:41;;;;;;;7.73;1.83;;;6.90;99.90;;;;;;5059254;28;20218;-67
2021/12/05 12:42:16;;;;;;;4.97;2.27;;;6.90;99.90;;;;;;5058668;28;20213;-66
2021/12/05 12:45:09;;;;;;;5.50;1.70;;;7.00;99.90;;;;;;5058563;28;20616;-68
2021/12/05 12:47:38;;;;;;;13.23;3.80;;;7.00;99.90;;;;;;5073604;28;20176;-66
2021/12/05 12:50:29;;;;;;;3.33;1.90;;;7.10;99.90;;;;;;5075148;28;20164;-67
2021/12/05 12:53:01;;;;;;;4.03;1.50;;;7.00;99.90;;;;;;5075536;28;20166;-66
2021/12/05 12:55:30;;;;;;;2.90;1.40;;;6.90;99.90;;;;;;5075519;28;20151;-66
2021/12/05 12:57:57;;;;;;;7.63;4.53;;;6.80;99.90;;;;;;5075638;28;20304;-66
2021/12/05 13:00:26;;;;;;;9.53;4.73;;;6.70;99.90;;;;;;5075518;28;20167;-66
2021/12/05 13:02:59;;;;;;;10.83;2.23;;;6.70;99.90;;;;;;5075740;28;20159;-66
2021/12/05 13:11:13;;;;;;;5.87;2.03;;;6.60;99.90;;;;;;5075764;28;20291;-66
2021/12/05 13:13:42;;;;;;;3.23;1.43;;;6.60;99.90;;;;;;5075722;28;20158;-66
2021/12/05 13:16:29;;;;;;;4.13;1.50;;;6.60;99.90;;;;;;5075261;28;20612;-66
2021/12/05 13:19:19;;;;;;;2.20;1.57;;;6.60;99.90;;;;;;5074016;28;20194;-66
2021/12/05 13:21:48;;;;;;;9.20;1.60;;;6.60;99.90;;;;;;5075298;28;20168;-65
2021/12/05 13:24:27;;;;;;;5.40;1.73;;;6.60;99.90;;;;;;5075662;28;20163;-65
2021/12/05 13:27:03;;;;;;;2.33;1.40;;;6.60;99.90;;;;;;5070465;28;20203;-65
2021/12/05 13:29:34;;;;;;;6.40;1.83;;;6.60;99.90;;;;;;5075417;28;20174;-66
2021/12/05 13:32:11;;;;;;;2.03;1.47;;;6.60;99.90;;;;;;5074633;28;20592;-67
2021/12/05 13:34:49;;;;;;;3.50;2.00;;;6.60;99.90;;;;;;5074259;28;20235;-66
2021/12/05 13:37:16;;;;;;;4.80;2.00;;;6.60;99.90;;;;;;5074560;28;20187;-66
2021/12/05 13:39:47;;;;;;;5.43;2.03;;;6.60;99.90;;;;;;5074015;28;20167;-67
2021/12/05 13:42:16;;;;;;;2.27;1.60;;;6.60;99.90;;;;;;5056649;28;20199;-67
2021/12/05 13:45:09;;;;;;;3.07;1.90;;;6.60;99.90;;;;;;5055636;28;20209;-67
2021/12/05 13:48:01;;;;;;;5.10;1.67;;;6.60;99.90;;;;;;5074050;28;20163;-66
2021/12/05 13:50:33;;;;;;;3.53;1.73;;;6.50;99.90;;;;;;5066245;28;20188;-67
2021/12/05 13:53:21;;;;;;;5.30;2.00;;;6.50;99.90;;;;;;5073971;28;20168;-69
2021/12/05 13:55:53;;;;;;;3.10;1.80;;;6.50;99.90;;;;;;5055818;28;20559;-67
2021/12/05 13:58:48;;;;;;;3.23;1.80;;;6.50;99.90;;;;;;5073507;28;20555;-68
2021/12/05 14:01:21;;;;;;;5.47;2.60;;;6.40;99.90;;;;;;5056299;28;20199;-67
2021/12/05 14:04:06;;;;;;;7.50;2.07;;;6.40;99.90;;;;;;5074175;28;20293;-67
2021/12/05 14:06:43;;;;;;;10.37;1.97;;;6.40;99.90;;;;;;5073525;28;20192;-67
2021/12/05 14:09:44;;;;;;;5.93;1.90;;;6.50;99.90;;;;;;5073729;28;20163;-67
2021/12/05 14:12:18;;;;;;;4.97;1.90;;;6.40;99.90;;;;;;5073346;28;20166;-67
2021/12/05 14:14:53;;;;;;;4.03;2.30;;;6.40;99.90;;;;;;5068747;28;20194;-67
2021/12/05 14:17:26;;;;;;;4.17;2.10;;;6.40;99.90;;;;;;5073547;28;20167;-65
2021/12/05 14:20:12;;;;;;;3.83;2.20;;;6.30;99.90;;;;;;5073619;28;20158;-65
2021/12/05 14:22:40;;;;;;;5.03;2.13;;;6.30;99.90;;;;;;5072935;28;20223;-64
2021/12/05 14:25:12;;;;;;;5.83;1.97;;;6.40;99.90;;;;;;5073599;28;20192;-66
2021/12/05 14:27:42;;;;;;;14.07;6.23;;;6.30;99.90;;;;;;5072934;28;20189;-66
2021/12/05 14:30:13;;;;;;;26.37;12.13;;;6.30;99.90;;;;;;5072600;28;20259;-66
2021/12/05 14:32:43;;;;;;;8.00;3.10;;;6.30;99.90;;;;;;5073745;28;20274;-66
2021/12/05 14:35:11;;;;;;;10.63;2.80;;;6.30;99.90;;;;;;5072597;28;20301;-66
2021/12/05 14:37:41;;;;;;;6.50;2.67;;;6.30;99.90;;;;;;5073139;28;20314;-67
2021/12/05 14:40:11;;;;;;;4.47;2.53;;;6.30;99.90;;;;;;5072972;28;20597;-68
2021/12/05 14:42:41;;;;;;;9.57;2.80;;;6.30;99.90;;;;;;5073260;28;20258;-67
2021/12/05 14:45:16;;;;;;;5.13;2.73;;;6.30;99.90;;;;;;5055389;28;20632;-66
2021/12/05 14:47:44;;;;;;;5.60;2.00;;;6.20;99.90;;;;;;5072716;28;20541;-65
2021/12/05 14:50:15;;;;;;;4.30;2.30;;;6.30;99.90;;;;;;5073007;28;20663;-66
2021/12/05 14:52:43;;;;;;;5.10;2.57;;;6.10;99.90;;;;;;5072693;28;20161;-65
2021/12/05 14:55:12;;;;;;;10.50;3.40;;;6.00;99.90;;;;;;5073076;28;20510;-69
2021/12/05 14:57:45;;;;;;;5.93;3.47;;;6.00;99.90;;;;;;5072986;28;20277;-68
2021/12/05 15:00:18;;;;;;;7.73;2.93;;;6.00;99.90;;;;;;5073476;28;20159;-68
2021/12/05 15:02:44;;;;;;;6.50;2.47;;;6.10;99.90;;;;;;5072478;28;20654;-68
2021/12/05 15:05:13;;;;;;;8.33;2.97;;;6.10;99.90;;;;;;5072951;28;20242;-66
2021/12/05 15:07:39;;;;;;;14.87;7.00;;;6.10;99.90;;;;;;5072829;28;20635;-66
2021/12/05 15:10:06;;;;;;;10.63;5.13;;;6.00;99.90;;;;;;5072930;28;20166;-68
2021/12/05 15:12:34;;;;;;;12.07;4.70;;;6.00;99.90;;;;;;5072779;28;20221;-65
2021/12/05 15:15:04;;;;;;;9.57;3.07;;;6.00;99.90;;;;;;5073631;28;20163;-65
2021/12/05 15:17:33;;;;;;;17.63;6.43;;;6.00;99.90;;;;;;5073045;28;20200;-67
2021/12/05 15:20:04;;;;;;;8.90;4.40;;;6.00;99.90;;;;;;5072492;28;20567;-66
2021/12/05 15:22:31;;;;;;;20.43;9.30;;;5.90;99.90;;;;;;5054526;28;20218;-67
2021/12/05 15:25:06;;;;;;;13.20;6.13;;;5.90;99.90;;;;;;5072046;28;20195;-66
2021/12/05 15:27:33;;;;;;;8.80;4.80;;;5.90;99.90;;;;;;5072734;28;20176;-66
2021/12/05 15:30:08;;;;;;;8.43;4.33;;;5.80;99.90;;;;;;5072362;28;20187;-66
2021/12/05 15:32:34;;;;;;;7.13;3.13;;;5.80;99.90;;;;;;5072939;28;20241;-65
2021/12/05 15:35:04;;;;;;;7.90;3.00;;;5.70;99.90;;;;;;5083963;28;20227;-65
2021/12/05 15:37:29;;;;;;;8.20;4.03;;;5.70;99.90;;;;;;5092086;28;20155;-67
2021/12/05 15:39:57;;;;;;;7.30;4.17;;;5.60;99.90;;;;;;5092858;28;20512;-65
2021/12/05 15:42:30;;;;;;;6.57;4.30;;;5.70;99.90;;;;;;5094022;28;20166;-65
2021/12/05 15:44:59;;;;;;;8.50;4.03;;;5.60;99.90;;;;;;5096681;28;20641;-66
2021/12/05 15:47:31;;;;;;;12.53;7.33;;;5.50;99.90;;;;;;5096665;28;20174;-67
2021/12/05 15:50:05;;;;;;;11.37;7.47;;;5.60;99.90;;;;;;5096684;28;20154;-67
2021/12/05 15:52:40;;;;;;;11.57;6.23;;;5.70;99.90;;;;;;5096315;28;20215;-65
2021/12/05 15:55:11;;;;;;;13.70;5.73;;;5.60;99.90;;;;;;5096124;28;20610;-66
2021/12/05 15:57:42;;;;;;;9.57;4.23;;;5.60;99.90;;;;;;5073540;28;20262;-65
2021/12/05 16:00:15;;;;;;;13.73;6.03;;;5.60;99.90;;;;;;5076284;28;20603;-66
2021/12/05 16:02:47;;;;;;;17.70;6.17;;;5.50;99.90;;;;;;5077035;28;20181;-66
2021/12/05 16:05:19;;;;;;;8.63;4.70;;;5.50;99.90;;;;;;5075965;28;20304;-66
2021/12/05 16:07:45;;;;;;;18.67;7.00;;;5.30;99.90;;;;;;5075361;28;20635;-65
2021/12/05 16:10:21;;;;;;;10.40;4.03;;;5.40;99.90;;;;;;5075863;28;20160;-66
2021/12/05 16:12:49;;;;;;;8.57;4.53;;;5.30;99.90;;;;;;5075823;28;20167;-67
2021/12/05 16:15:17;;;;;;;10.03;3.20;;;5.30;99.90;;;;;;5076189;28;20159;-65
2021/12/05 16:17:58;;;;;;;13.13;5.30;;;5.20;99.90;;;;;;5076324;28;20192;-66
2021/12/05 16:20:35;;;;;;;12.03;4.03;;;5.30;99.90;;;;;;5076010;28;20211;-67
2021/12/05 16:23:13;;;;;;;12.80;4.33;;;5.30;99.90;;;;;;5076427;28;20172;-66
2021/12/05 16:26:13;;;;;;;4.87;3.10;;;5.30;99.90;;;;;;5076098;28;20199;-66
2021/12/05 16:29:03;;;;;;;13.13;4.07;;;5.30;99.90;;;;;;5044469;28;20201;-66
2021/12/05 16:31:47;;;;;;;9.57;3.37;;;5.40;99.90;;;;;;5077250;28;20275;-67
2021/12/05 16:34:14;;;;;;;10.87;3.97;;;5.40;99.90;;;;;;5077080;28;20260;-69
2021/12/05 16:36:56;;;;;;;4.60;2.70;;;5.40;99.90;;;;;;5078550;28;20189;-68
2021/12/05 16:39:31;;;;;;;4.23;3.07;;;5.40;99.90;;;;;;5086065;28;20164;-66
2021/12/05 16:42:05;;;;;;;8.63;4.57;;;5.50;99.90;;;;;;5082630;28;20175;-67
2021/12/05 16:44:37;;;;;;;7.37;3.57;;;5.50;99.90;;;;;;5085072;28;20626;-68
2021/12/05 16:47:14;;;;;;;9.17;4.40;;;5.50;99.90;;;;;;5075592;28;20256;-67
2021/12/05 16:49:42;;;;;;;17.87;8.27;;;5.60;99.90;;;;;;5074642;28;20172;-66
2021/12/05 16:52:20;;;;;;;12.90;5.00;;;5.60;99.90;;;;;;5074948;28;20681;-67
2021/12/05 16:54:52;;;;;;;7.80;3.63;;;5.60;99.90;;;;;;5056418;28;20601;-66
2021/12/05 16:57:29;;;;;;;9.67;4.63;;;5.70;99.90;;;;;;5075135;28;20152;-67
2021/12/05 16:59:57;;;;;;;9.20;4.60;;;5.60;99.90;;;;;;5074800;28;20154;-67
2021/12/05 17:02:25;;;;;;;8.97;4.07;;;5.70;99.90;;;;;;5075372;28;20165;-65
2021/12/05 17:05:04;;;;;;;9.63;4.13;;;5.60;99.90;;;;;;5075124;28;20581;-65
2021/12/05 17:07:42;;;;;;;13.30;6.77;;;5.60;99.90;;;;;;5075375;28;20167;-66
2021/12/05 17:10:28;;;;;;;13.90;7.80;;;5.60;99.90;;;;;;5073401;28;20190;-67
2021/12/05 17:13:13;;;;;;;12.00;4.53;;;5.60;99.90;;;;;;5074893;28;20644;-66
2021/12/05 17:15:50;;;;;;;16.20;6.43;;;5.60;99.90;;;;;;5060503;28;20187;-67
2021/12/05 17:18:24;;;;;;;11.27;6.83;;;5.70;99.90;;;;;;5074240;28;20257;-65
2021/12/05 17:21:03;;;;;;;10.07;4.97;;;5.70;99.90;;;;;;5074525;28;20159;-67
2021/12/05 17:23:34;;;;;;;13.93;6.77;;;5.70;99.90;;;;;;5074095;28;20159;-68
2021/12/05 17:26:28;;;;;;;16.27;7.40;;;5.60;99.90;;;;;;5074651;28;20245;-67
2021/12/05 17:28:56;;;;;;;16.80;7.53;;;5.70;99.90;;;;;;5074572;28;20170;-67
2021/12/05 17:31:28;;;;;;;12.13;6.27;;;5.60;99.90;;;;;;5074621;28;20179;-65
2021/12/05 17:33:57;;;;;;;11.70;6.17;;;5.60;99.90;;;;;;5074114;28;20171;-67
2021/12/05 17:36:27;;;;;;;12.70;5.50;;;5.60;99.90;;;;;;5074129;28;20256;-67
2021/12/05 17:39:13;;;;;;;10.20;4.97;;;5.60;99.90;;;;;;5073623;28;20156;-67
2021/12/05 17:41:41;;;;;;;7.43;4.60;;;5.60;99.90;;;;;;5073904;28;20243;-67
2021/12/05 17:44:07;;;;;;;11.53;5.80;;;5.50;99.90;;;;;;5073109;28;20197;-67
2021/12/05 17:46:35;;;;;;;9.07;4.90;;;5.60;99.90;;;;;;5073663;28;20177;-66
2021/12/05 17:49:02;;;;;;;9.97;4.57;;;5.50;99.90;;;;;;5074220;28;20208;-66
2021/12/05 17:51:36;;;;;;;10.53;5.60;;;5.60;99.90;;;;;;5073818;28;20246;-66
2021/12/05 17:54:06;;;;;;;12.40;5.60;;;5.60;99.90;;;;;;5073522;28;20152;-66
2021/12/05 17:56:39;;;;;;;10.77;5.57;;;5.60;99.90;;;;;;5073514;28;20171;-69
2021/12/05 17:59:24;;;;;;;12.20;5.67;;;5.50;99.90;;;;;;5073813;28;20208;-66
2021/12/05 18:04:37;;;;;;;8.23;4.83;;;5.50;99.90;;;;;;5073154;28;20201;-68
2021/12/05 18:07:03;;;;;;;7.93;4.80;;;5.40;99.90;;;;;;5073935;28;20494;-65
2021/12/05 18:09:28;;;;;;;9.33;4.40;;;5.40;99.90;;;;;;5074111;28;20596;-68
2021/12/05 18:11:54;;;;;;;7.90;4.23;;;5.50;99.90;;;;;;5073498;28;20242;-68
2021/12/05 18:14:20;;;;;;;6.47;3.97;;;5.50;99.90;;;;;;5073310;28;20169;-67
2021/12/05 18:16:46;;;;;;;6.53;4.77;;;5.40;99.90;;;;;;5074065;28;20183;-66
2021/12/05 18:19:16;;;;;;;9.53;4.83;;;5.30;99.90;;;;;;5073506;28;20173;-65
2021/12/05 18:21:45;;;;;;;7.80;4.80;;;5.40;99.90;;;;;;5072703;28;20159;-67
2021/12/05 18:24:15;;;;;;;9.77;6.07;;;5.50;99.90;;;;;;5093374;28;20155;-66
2021/12/05 18:26:42;;;;;;;12.30;5.20;;;5.40;99.90;;;;;;5094368;28;20195;-66
2021/12/05 18:29:10;;;;;;;8.30;4.67;;;5.40;99.90;;;;;;5093923;28;20228;-66
2021/12/05 18:31:37;;;;;;;9.03;5.40;;;5.40;99.90;;;;;;5093751;28;20187;-66
2021/12/05 18:34:07;;;;;;;15.90;7.83;;;5.60;99.90;;;;;;5093619;28;20228;-68
2021/12/05 18:36:37;;;;;;;17.60;7.97;;;5.40;99.90;;;;;;5075586;28;20292;-67
2021/12/05 18:39:05;;;;;;;15.10;7.57;;;5.20;99.90;;;;;;5094035;28;20503;-67
2021/12/05 18:41:34;;;;;;;20.07;11.33;;;5.20;99.90;;;;;;5093042;28;20202;-67
2021/12/05 18:44:02;;;;;;;14.17;5.67;;;5.20;99.90;;;;;;5093188;28;20156;-68
2021/12/05 18:46:28;;;;;;;12.63;6.27;;;5.20;99.90;;;;;;5093398;28;20205;-67